Pays
Station

 

Conditions  météo  pour  Lungi  -  Sierra Leone    Sierra Leone

  
31 °C
    
 
 

METAR pour Lungi :

GFLL 041300Z 31010KT 9999 FEW014 31/25 Q1010

 

Voici le bulletin pour Lungi - Sierra Leone.
 
Le bulletin a été fait il y a 4 heures et 19 minutes, à 13:00 UTC .
Le vent soufflait à la vitesse de 5.1 mètres par seconde de Nord-ouest (310°).
 
La température était de 31 °C, avec un point de rosée à 25 °C.
La température ressentie était de 38 °C.
 
La pression atmosphérique était de 1010 hPa.
L'humidité relative était de 70.5%.
 
Il y avait 1 à 2/8ème de nébulosité à une hauteur de 427 mètres.
 
La visibilité globale était de supérieure à 10 kilomètres.
 

 
 
 

Pays :   A   B   C   D   E   F   G   H   I   J   K   L   M   N   O   P   Q   R   S   T   U   V   W   Y   Z

 

Partenaires :  Info Météo avec Met'info
Météo Marine avec MeteoMarine.net
Infos Site  |  Infos Légales  |  Crédits  |  Confidentialité
Contactez-nous  |  Ajouter aux favoris
© 2013-2020 METAR - Tous droits réservés